createdAt,value
2019-03-20T00:00:21.171Z,41.85
2019-03-20T00:02:49.743Z,45.52
2019-03-20T00:05:18.255Z,59.85
2019-03-20T00:07:46.699Z,45.52
2019-03-20T00:10:15.126Z,46.15
2019-03-20T00:12:43.637Z,55.88
2019-03-20T00:15:13.712Z,53.98
2019-03-20T00:17:42.176Z,43.48
2019-03-20T00:20:12.927Z,51.55
2019-03-20T00:22:43.103Z,57.73
2019-03-20T00:25:12.175Z,52.93
2019-03-20T00:27:40.895Z,56.35
2019-03-20T00:30:16.428Z,45.83
2019-03-20T00:32:45.031Z,51.92
2019-03-20T00:35:13.555Z,59.27
2019-03-20T00:37:42.082Z,54.83
2019-03-20T00:40:13.590Z,54.00
2019-03-20T00:42:42.030Z,51.80
2019-03-20T00:45:22.968Z,55.08
2019-03-20T00:47:51.401Z,52.90
2019-03-20T00:50:20.593Z,55.60
2019-03-20T00:52:49.037Z,56.18
2019-03-20T00:55:18.345Z,53.00
2019-03-20T00:57:47.175Z,60.75
2019-03-20T01:00:20.731Z,57.85
2019-03-20T01:02:49.303Z,59.65
2019-03-20T01:05:17.998Z,58.48
2019-03-20T01:07:46.662Z,60.90
2019-03-20T01:10:19.999Z,59.98
2019-03-20T01:12:48.523Z,55.17
2019-03-20T01:15:16.952Z,54.03
2019-03-20T01:17:45.717Z,61.58
2019-03-20T01:20:17.266Z,56.50
2019-03-20T01:22:46.071Z,61.00
2019-03-20T01:25:15.360Z,59.13
2019-03-20T01:27:43.795Z,60.88
2019-03-20T01:30:35.750Z,60.33
2019-03-20T01:33:06.914Z,62.03
2019-03-20T01:35:35.711Z,60.60
2019-03-20T01:38:04.732Z,60.43
2019-03-20T01:40:33.184Z,61.95
2019-03-20T01:43:01.755Z,63.60
2019-03-20T01:45:30.264Z,55.52
2019-03-20T01:47:58.711Z,63.40
2019-03-20T01:50:27.162Z,65.75
2019-03-20T01:52:55.612Z,66.55
2019-03-20T01:55:24.113Z,57.62
2019-03-20T01:57:52.567Z,62.23
2019-03-20T02:00:20.985Z,71.00
2019-03-20T02:02:49.434Z,61.40
2019-03-20T02:05:17.875Z,65.47
2019-03-20T02:07:46.380Z,72.15
2019-03-20T02:10:16.981Z,57.55
2019-03-20T02:12:45.421Z,56.48
2019-03-20T02:15:16.069Z,59.53
2019-03-20T02:17:44.508Z,60.78
2019-03-20T02:20:15.189Z,60.48
2019-03-20T02:22:45.249Z,69.75
2019-03-20T02:25:14.341Z,70.15
2019-03-20T02:27:42.847Z,63.68
2019-03-20T02:30:18.555Z,70.55
2019-03-20T02:32:51.328Z,66.45
2019-03-20T02:35:19.829Z,72.08
2019-03-20T02:37:48.282Z,64.80
2019-03-20T02:40:16.787Z,68.75
2019-03-20T02:42:45.249Z,71.10
2019-03-20T02:45:17.174Z,73.15
2019-03-20T02:47:45.760Z,72.22
2019-03-20T02:50:15.172Z,73.12
2019-03-20T02:52:43.666Z,67.40
2019-03-20T02:55:12.662Z,81.90
2019-03-20T02:57:41.095Z,76.45
2019-03-20T03:00:12.757Z,90.42
2019-03-20T03:02:41.183Z,85.10
2019-03-20T03:05:10.471Z,93.47
2019-03-20T03:07:38.904Z,76.00
2019-03-20T03:10:17.770Z,87.95
2019-03-20T03:12:46.622Z,81.92
2019-03-20T03:15:16.463Z,81.15
2019-03-20T03:17:45.063Z,82.40
2019-03-20T03:20:15.468Z,85.57
2019-03-20T03:22:44.224Z,88.10
2019-03-20T03:25:14.473Z,82.67
2019-03-20T03:27:42.989Z,83.47
2019-03-20T03:30:16.488Z,87.12
2019-03-20T03:32:46.542Z,82.25
2019-03-20T03:35:18.690Z,91.42
2019-03-20T03:37:45.816Z,89.70
2019-03-20T03:40:18.438Z,85.57
2019-03-20T03:42:47.217Z,82.80
2019-03-20T03:45:16.676Z,78.45
2019-03-20T03:47:45.368Z,81.63
2019-03-20T03:50:14.037Z,82.55
2019-03-20T03:52:42.629Z,86.45
2019-03-20T03:55:12.882Z,89.00
2019-03-20T03:57:41.478Z,79.72
2019-03-20T04:00:17.451Z,85.10
2019-03-20T04:02:46.027Z,82.78
2019-03-20T04:05:15.105Z,85.22
2019-03-20T04:07:43.614Z,73.45
2019-03-20T04:10:18.429Z,82.82
2019-03-20T04:12:46.923Z,80.20
2019-03-20T04:15:16.307Z,89.03
2019-03-20T04:17:44.776Z,85.83
2019-03-20T04:20:17.112Z,82.47
2019-03-20T04:22:45.686Z,86.22
2019-03-20T04:25:14.266Z,72.42
2019-03-20T04:27:44.252Z,77.90
2019-03-20T04:30:15.002Z,84.20
2019-03-20T04:32:43.520Z,83.17
2019-03-20T04:35:12.286Z,84.60
2019-03-20T04:37:40.753Z,77.70
2019-03-20T04:40:12.271Z,79.37
2019-03-20T04:42:40.782Z,76.60
2019-03-20T04:45:16.806Z,82.75
2019-03-20T04:47:45.275Z,80.22
2019-03-20T04:50:17.245Z,70.62
2019-03-20T04:52:45.753Z,86.80
2019-03-20T04:55:14.281Z,67.20
2019-03-20T04:57:45.428Z,77.32
2019-03-20T05:00:15.658Z,76.53
2019-03-20T05:02:44.101Z,77.95
2019-03-20T05:05:12.686Z,80.17
2019-03-20T05:07:41.131Z,72.40
2019-03-20T05:10:17.816Z,75.03
2019-03-20T05:12:46.260Z,79.25
2019-03-20T05:15:14.757Z,78.12
2019-03-20T05:17:43.292Z,73.92
2019-03-20T05:20:17.036Z,74.37
2019-03-20T05:22:45.492Z,81.63
2019-03-20T05:25:13.933Z,82.12
2019-03-20T05:27:42.368Z,74.87
2019-03-20T05:30:15.420Z,76.37
2019-03-20T05:32:43.875Z,82.25
2019-03-20T05:35:12.679Z,80.83
2019-03-20T05:37:41.112Z,79.47
2019-03-20T05:40:19.195Z,84.42
2019-03-20T05:42:47.651Z,76.05
2019-03-20T05:45:17.727Z,77.82
2019-03-20T05:47:46.214Z,79.70
2019-03-20T05:50:15.831Z,74.95
2019-03-20T05:52:44.267Z,73.52
2019-03-20T05:55:13.048Z,77.53
2019-03-20T05:57:41.559Z,80.10
2019-03-20T06:00:13.510Z,67.45
2019-03-20T06:02:41.941Z,72.53
2019-03-20T06:05:10.438Z,81.30
2019-03-20T06:07:38.883Z,78.02
2019-03-20T06:10:10.350Z,70.17
2019-03-20T06:12:38.850Z,75.60
2019-03-20T06:15:08.236Z,75.60
2019-03-20T06:17:36.666Z,71.82
2019-03-20T06:20:07.963Z,74.22
2019-03-20T06:22:36.462Z,77.22
2019-03-20T06:25:07.653Z,73.97
2019-03-20T06:27:36.130Z,79.05
2019-03-20T06:30:07.995Z,81.40
2019-03-20T06:32:36.436Z,66.67
2019-03-20T06:35:06.901Z,80.65
2019-03-20T06:37:37.029Z,88.17
2019-03-20T06:40:12.669Z,75.03
2019-03-20T06:42:41.109Z,76.70
2019-03-20T06:45:15.604Z,74.55
2019-03-20T06:47:44.025Z,71.65
2019-03-20T06:50:23.969Z,78.35
2019-03-20T06:52:52.419Z,70.62
2019-03-20T06:55:20.864Z,77.60
2019-03-20T06:57:49.311Z,77.62
2019-03-20T07:00:39.239Z,80.32
2019-03-20T07:03:29.053Z,76.02
2019-03-20T07:06:06.673Z,71.53
2019-03-20T07:08:41.139Z,75.15
2019-03-20T07:11:09.472Z,68.78
2019-03-20T07:13:37.922Z,79.12
2019-03-20T07:16:06.417Z,77.82
2019-03-20T07:18:34.870Z,86.45
2019-03-20T07:21:03.299Z,82.05
2019-03-20T07:23:31.726Z,76.87
2019-03-20T07:26:00.165Z,72.15
2019-03-20T07:28:28.603Z,75.95
2019-03-20T07:30:57.042Z,82.95
2019-03-20T07:33:25.484Z,86.22
2019-03-20T07:35:53.993Z,81.02
2019-03-20T07:38:22.428Z,75.25
2019-03-20T07:40:50.883Z,86.10
2019-03-20T07:43:19.315Z,78.55
2019-03-20T07:45:47.822Z,81.97
2019-03-20T07:48:22.066Z,80.83
2019-03-20T07:50:46.422Z,73.97
2019-03-20T07:53:14.868Z,66.75
2019-03-20T07:55:43.311Z,80.80
2019-03-20T07:58:11.771Z,74.42
2019-03-20T08:00:40.511Z,73.57
2019-03-20T08:03:08.948Z,68.47
2019-03-20T08:05:37.470Z,76.60
2019-03-20T08:08:07.684Z,78.57
2019-03-20T08:10:36.070Z,63.38
2019-03-20T08:13:04.511Z,72.62
2019-03-20T08:15:32.950Z,65.10
2019-03-20T08:18:01.407Z,73.50
2019-03-20T08:20:30.699Z,68.83
2019-03-20T08:22:59.150Z,60.78
2019-03-20T08:25:27.595Z,63.70
2019-03-20T08:27:56.038Z,71.12
2019-03-20T08:30:24.475Z,58.95
2019-03-20T08:32:52.919Z,69.07
2019-03-20T08:35:21.356Z,63.58
2019-03-20T08:37:49.793Z,65.10
2019-03-20T08:40:18.891Z,65.57
2019-03-20T08:42:47.327Z,62.95
2019-03-20T08:45:17.779Z,60.70
2019-03-20T08:47:46.287Z,63.30
2019-03-20T08:50:22.971Z,66.00
2019-03-20T08:52:51.690Z,66.50
2019-03-20T08:55:21.074Z,61.75
2019-03-20T08:57:49.900Z,74.77
2019-03-20T09:00:22.590Z,81.67
2019-03-20T09:02:51.045Z,72.00
2019-03-20T09:05:19.526Z,76.62
2019-03-20T09:07:48.068Z,68.55
2019-03-20T09:10:24.457Z,60.73
2019-03-20T09:12:53.639Z,71.95
2019-03-20T09:15:22.336Z,79.82
2019-03-20T09:17:50.851Z,71.53
2019-03-20T09:20:20.335Z,64.90
2019-03-20T09:22:48.938Z,64.97
2019-03-20T09:25:23.396Z,66.77
2019-03-20T09:27:51.893Z,69.82
2019-03-20T09:30:22.266Z,63.00
2019-03-20T09:32:50.839Z,70.28
2019-03-20T09:35:19.419Z,61.85
2019-03-20T09:37:52.390Z,62.13
2019-03-20T09:40:20.005Z,64.72
2019-03-20T09:42:48.450Z,58.65
2019-03-20T09:45:19.009Z,61.35
2019-03-20T09:47:47.446Z,63.35
2019-03-20T09:50:22.647Z,69.07
2019-03-20T09:52:51.161Z,69.03
2019-03-20T09:55:19.611Z,73.12
2019-03-20T09:57:48.159Z,65.62
2019-03-20T10:00:27.606Z,65.28
2019-03-20T10:02:56.051Z,65.28
2019-03-20T10:05:24.849Z,71.10
2019-03-20T10:07:53.284Z,73.67
2019-03-20T10:10:26.108Z,71.30
2019-03-20T10:12:54.557Z,72.50
2019-03-20T10:15:27.091Z,67.00
2019-03-20T10:17:55.603Z,71.40
2019-03-20T10:20:24.114Z,80.90
2019-03-20T10:22:53.891Z,67.10
2019-03-20T10:25:22.400Z,68.07
2019-03-20T10:27:51.956Z,65.10
2019-03-20T10:30:27.774Z,69.62
2019-03-20T10:32:56.301Z,71.82
2019-03-20T10:35:24.816Z,79.17
2019-03-20T10:37:53.277Z,74.77
2019-03-20T10:40:23.527Z,73.83
2019-03-20T10:42:52.070Z,77.80
2019-03-20T10:45:20.919Z,68.47
2019-03-20T10:47:52.744Z,73.55
2019-03-20T10:50:22.202Z,73.22
2019-03-20T10:52:50.691Z,74.75
2019-03-20T10:55:19.214Z,72.25
2019-03-20T10:57:47.746Z,75.20
2019-03-20T11:00:24.271Z,76.72
2019-03-20T11:02:52.877Z,71.70
2019-03-20T11:05:21.655Z,71.20
2019-03-20T11:07:50.503Z,73.20
2019-03-20T11:10:29.461Z,79.17
2019-03-20T11:12:57.918Z,70.78
2019-03-20T11:15:29.369Z,74.97
2019-03-20T11:17:56.956Z,74.97
2019-03-20T11:20:25.850Z,70.12
2019-03-20T11:22:58.307Z,69.95
2019-03-20T11:25:29.935Z,78.22
2019-03-20T11:27:58.380Z,84.47
2019-03-20T11:30:34.332Z,68.95
2019-03-20T11:33:02.844Z,76.53
2019-03-20T11:35:31.293Z,75.70
2019-03-20T11:37:59.868Z,79.45
2019-03-20T11:40:30.073Z,77.03
2019-03-20T11:42:58.508Z,80.83
2019-03-20T11:45:46.293Z,81.40
2019-03-20T11:48:14.721Z,72.78
2019-03-20T11:50:44.707Z,82.17
2019-03-20T11:53:13.159Z,74.72
2019-03-20T11:55:41.675Z,77.45
2019-03-20T11:58:10.122Z,83.78
2019-03-20T12:00:38.557Z,80.87
2019-03-20T12:03:07.082Z,80.07
2019-03-20T12:05:35.533Z,80.90
2019-03-20T12:08:04.655Z,84.77
2019-03-20T12:10:33.907Z,82.37
2019-03-20T12:13:03.970Z,89.17
2019-03-20T12:15:32.426Z,85.53
2019-03-20T12:18:00.947Z,90.28
2019-03-20T12:20:29.390Z,84.83
2019-03-20T12:22:57.833Z,84.90
2019-03-20T12:25:31.511Z,77.08
2019-03-20T12:28:00.211Z,96.20
2019-03-20T12:30:30.505Z,88.92
2019-03-20T12:32:58.937Z,79.37
2019-03-20T12:35:29.729Z,78.90
2019-03-20T12:37:58.175Z,86.78
2019-03-20T12:40:30.830Z,79.15
2019-03-20T12:42:59.618Z,85.65
2019-03-20T12:45:33.492Z,84.22
2019-03-20T12:48:03.573Z,79.60
2019-03-20T12:50:32.020Z,90.12
2019-03-20T12:53:01.756Z,84.07
2019-03-20T12:55:31.186Z,83.95
2019-03-20T12:58:00.623Z,89.58
2019-03-20T13:00:29.135Z,81.12
2019-03-20T13:02:57.654Z,76.15
2019-03-20T13:05:26.103Z,88.67
2019-03-20T13:07:54.554Z,91.78
2019-03-20T13:10:24.254Z,81.82
2019-03-20T13:12:52.831Z,84.07
2019-03-20T13:15:26.116Z,86.50
2019-03-20T13:17:55.590Z,85.30
2019-03-20T13:20:24.116Z,88.55
2019-03-20T13:23:10.906Z,89.87
2019-03-20T13:25:39.355Z,85.38
2019-03-20T13:28:07.790Z,84.35
2019-03-20T13:30:57.329Z,84.47
2019-03-20T13:33:26.367Z,80.95
2019-03-20T13:35:54.907Z,82.82
2019-03-20T13:38:23.390Z,83.85
2019-03-20T13:40:51.835Z,79.00
2019-03-20T13:43:20.308Z,80.15
2019-03-20T13:45:48.802Z,79.20
2019-03-20T13:48:17.267Z,75.20
2019-03-20T13:50:45.703Z,78.17
2019-03-20T13:53:15.396Z,75.52
2019-03-20T13:55:44.076Z,73.90
2019-03-20T13:58:12.603Z,72.90
2019-03-20T14:00:41.060Z,69.37
2019-03-20T14:03:09.509Z,66.35
2019-03-20T14:05:37.953Z,68.05
2019-03-20T14:08:06.399Z,60.98
2019-03-20T14:10:49.555Z,63.05
2019-03-20T14:13:06.014Z,59.15
2019-03-20T14:15:34.462Z,54.53
2019-03-20T14:18:02.898Z,48.42
2019-03-20T14:20:33.452Z,59.58
2019-03-20T14:23:01.903Z,46.13
2019-03-20T14:25:30.427Z,51.95
2019-03-20T14:27:58.871Z,50.00
2019-03-20T14:30:29.225Z,52.45
2019-03-20T14:32:59.277Z,49.00
2019-03-20T14:35:27.799Z,53.35
2019-03-20T14:38:02.758Z,44.50
2019-03-20T14:40:36.245Z,46.88
2019-03-20T14:43:02.537Z,56.48
2019-03-20T14:45:31.060Z,48.23
2019-03-20T14:47:59.501Z,47.98
2019-03-20T14:50:29.279Z,43.68
2019-03-20T14:52:57.725Z,45.05
2019-03-20T14:55:26.173Z,45.73
2019-03-20T14:57:54.622Z,45.10
2019-03-20T15:00:27.096Z,46.45
2019-03-20T15:02:56.329Z,56.92
2019-03-20T15:05:27.980Z,44.80
2019-03-20T15:07:58.401Z,50.88
2019-03-20T15:10:28.895Z,39.92
2019-03-20T15:12:57.782Z,58.78
2019-03-20T15:15:32.121Z,43.00
2019-03-20T15:18:02.224Z,49.45
2019-03-20T15:20:30.669Z,48.70
2019-03-20T15:22:59.098Z,47.08
2019-03-20T15:25:27.615Z,37.55
2019-03-20T15:27:57.687Z,43.55
2019-03-20T15:30:30.182Z,50.92
2019-03-20T15:33:05.107Z,43.85
2019-03-20T15:35:33.551Z,47.45
2019-03-20T15:38:01.997Z,47.27
2019-03-20T15:40:31.169Z,44.42
2019-03-20T15:42:59.627Z,43.55
2019-03-20T15:45:28.087Z,47.13
2019-03-20T15:47:56.541Z,51.35
2019-03-20T15:50:28.175Z,42.08
2019-03-20T15:52:57.974Z,48.13
2019-03-20T15:55:29.509Z,47.30
2019-03-20T15:58:01.494Z,58.42
2019-03-20T16:00:30.031Z,44.90
2019-03-20T16:03:07.722Z,42.23
2019-03-20T16:05:36.402Z,52.43
2019-03-20T16:08:04.927Z,48.42
2019-03-20T16:10:33.387Z,44.38
2019-03-20T16:13:01.848Z,40.30
2019-03-20T16:15:30.375Z,45.50
2019-03-20T16:17:58.815Z,48.83
2019-03-20T16:20:28.363Z,45.28
2019-03-20T16:22:56.779Z,46.28
2019-03-20T16:25:25.511Z,56.23
2019-03-20T16:27:53.962Z,72.37
2019-03-20T16:30:32.786Z,51.85
2019-03-20T16:33:01.232Z,52.33
2019-03-20T16:35:29.675Z,62.15
2019-03-20T16:37:58.127Z,49.20
2019-03-20T16:40:32.574Z,52.60
2019-03-20T16:43:01.036Z,48.42
2019-03-20T16:45:34.467Z,43.00
2019-03-20T16:48:03.181Z,50.33
2019-03-20T16:50:31.639Z,51.65
2019-03-20T16:53:00.410Z,46.73
2019-03-20T16:55:28.872Z,45.83
2019-03-20T16:57:57.328Z,47.03
2019-03-20T17:00:28.284Z,41.33
2019-03-20T17:02:57.106Z,42.93
2019-03-20T17:05:26.777Z,50.85
2019-03-20T17:07:55.415Z,49.58
2019-03-20T17:10:26.929Z,59.20
2019-03-20T17:12:55.390Z,52.93
2019-03-20T17:15:28.863Z,53.63
2019-03-20T17:17:57.314Z,48.87
2019-03-20T17:20:25.770Z,43.05
2019-03-20T17:22:54.211Z,49.95
2019-03-20T17:25:22.807Z,36.93
2019-03-20T17:27:51.250Z,42.27
2019-03-20T17:30:25.127Z,40.80
2019-03-20T17:32:53.589Z,41.55
2019-03-20T17:35:22.197Z,56.77
2019-03-20T17:37:50.643Z,39.63
2019-03-20T17:40:23.373Z,35.30
2019-03-20T17:42:51.883Z,47.75
2019-03-20T17:45:22.488Z,36.45
2019-03-20T17:47:50.995Z,36.30
2019-03-20T17:50:32.759Z,46.28
2019-03-20T17:53:02.243Z,44.18
2019-03-20T17:55:46.049Z,42.35
2019-03-20T17:58:33.863Z,44.20
2019-03-20T18:01:02.349Z,34.70
2019-03-20T18:03:30.807Z,45.75
2019-03-20T18:05:59.255Z,39.35
2019-03-20T18:08:27.699Z,40.52
2019-03-20T18:10:56.152Z,44.30
2019-03-20T18:13:24.601Z,47.67
2019-03-20T18:15:53.082Z,44.73
2019-03-20T18:18:21.586Z,40.80
2019-03-20T18:20:50.024Z,44.10
2019-03-20T18:23:18.486Z,52.70
2019-03-20T18:25:46.918Z,51.75
2019-03-20T18:28:15.379Z,63.60
2019-03-20T18:30:44.268Z,53.28
2019-03-20T18:33:14.255Z,64.60
2019-03-20T18:35:42.715Z,67.85
2019-03-20T18:38:11.144Z,59.63
2019-03-20T18:40:39.673Z,58.42
2019-03-20T18:43:08.119Z,63.33
2019-03-20T18:45:36.550Z,61.00
2019-03-20T18:48:05.353Z,66.30
2019-03-20T18:50:33.872Z,70.62
2019-03-20T18:53:02.329Z,75.70
2019-03-20T18:55:30.840Z,76.97
2019-03-20T18:57:59.383Z,75.90
2019-03-20T19:00:30.031Z,75.97
2019-03-20T19:03:04.375Z,81.10
2019-03-20T19:05:36.023Z,80.53
2019-03-20T19:08:05.706Z,86.85
2019-03-20T19:10:34.235Z,72.90
2019-03-20T19:13:02.782Z,82.90
2019-03-20T19:15:31.296Z,89.10
2019-03-20T19:17:59.761Z,94.42
2019-03-20T19:20:28.281Z,107.95
2019-03-20T19:22:56.730Z,106.32
2019-03-20T19:25:26.796Z,108.83
2019-03-20T19:27:55.255Z,108.63
2019-03-20T19:30:25.234Z,95.05
2019-03-20T19:32:53.696Z,100.33
2019-03-20T19:35:22.288Z,100.10
2019-03-20T19:37:50.755Z,99.30
2019-03-20T19:40:20.442Z,101.40
2019-03-20T19:42:51.211Z,95.20
2019-03-20T19:45:19.808Z,106.67
2019-03-20T19:47:48.518Z,107.12
2019-03-20T19:50:19.167Z,95.65
2019-03-20T19:52:47.686Z,94.37
2019-03-20T19:55:19.194Z,103.15
2019-03-20T19:57:47.631Z,107.75
2019-03-20T20:00:18.467Z,104.45
2019-03-20T20:02:46.995Z,96.47
2019-03-20T20:05:16.373Z,99.95
2019-03-20T20:07:44.937Z,92.65
2019-03-20T20:10:16.475Z,92.05
2019-03-20T20:12:45.062Z,91.65
2019-03-20T20:15:27.431Z,89.80
2019-03-20T20:18:15.216Z,85.30
2019-03-20T20:20:43.656Z,73.67
2019-03-20T20:23:12.111Z,75.85
2019-03-20T20:25:40.809Z,73.22
2019-03-20T20:28:11.259Z,78.20
2019-03-20T20:30:39.438Z,65.90
2019-03-20T20:33:07.878Z,71.75
2019-03-20T20:35:36.331Z,65.95
2019-03-20T20:38:04.775Z,69.72
2019-03-20T20:40:33.232Z,69.30
2019-03-20T20:43:01.691Z,61.88
2019-03-20T20:45:30.145Z,61.60
2019-03-20T20:47:58.603Z,63.60
2019-03-20T20:50:27.051Z,56.48
2019-03-20T20:52:55.486Z,54.05
2019-03-20T20:55:24.699Z,51.58
2019-03-20T20:57:53.168Z,59.80
2019-03-20T21:00:22.359Z,54.13
2019-03-20T21:02:51.051Z,57.13
2019-03-20T21:05:19.476Z,59.18
2019-03-20T21:07:48.049Z,64.85
2019-03-20T21:10:30.223Z,67.62
2019-03-20T21:12:58.658Z,59.53
2019-03-20T21:15:35.645Z,61.05
2019-03-20T21:18:16.246Z,63.58
2019-03-20T21:20:45.531Z,63.70
2019-03-20T21:23:39.913Z,72.08
2019-03-20T21:26:10.568Z,68.05
2019-03-20T21:28:58.636Z,68.35
2019-03-20T21:31:30.570Z,64.82
2019-03-20T21:34:02.406Z,67.70
2019-03-20T21:36:59.887Z,59.33
2019-03-20T21:39:28.331Z,68.35
2019-03-20T21:42:09.111Z,71.67
2019-03-20T21:44:57.439Z,72.25
2019-03-20T21:47:35.717Z,67.35
2019-03-20T21:50:26.817Z,70.22
2019-03-20T21:52:55.276Z,73.00
2019-03-20T21:55:29.714Z,72.50
2019-03-20T21:58:01.241Z,66.95
2019-03-20T22:00:50.987Z,74.77
2019-03-20T22:03:19.443Z,73.17
2019-03-20T22:05:53.874Z,67.85
2019-03-20T22:08:22.323Z,71.45
2019-03-20T22:10:59.986Z,76.95
2019-03-20T22:13:34.524Z,76.80
2019-03-20T22:16:14.577Z,83.42
2019-03-20T22:19:12.571Z,72.45
2019-03-20T22:21:46.886Z,78.28
2019-03-20T22:24:24.151Z,83.07
2019-03-20T22:27:15.235Z,84.85
2019-03-20T22:29:43.683Z,78.97
2019-03-20T22:32:29.698Z,83.35
2019-03-20T22:35:23.957Z,89.35
2019-03-20T22:37:53.590Z,85.28
2019-03-20T22:40:34.030Z,84.52
2019-03-20T22:43:06.611Z,95.90
2019-03-20T22:45:53.340Z,94.72
2019-03-20T22:48:46.281Z,104.75
2019-03-20T22:51:25.935Z,98.12
2019-03-20T22:54:21.840Z,109.65
2019-03-20T22:57:13.168Z,94.62
2019-03-20T22:59:41.632Z,104.17
2019-03-20T23:02:19.306Z,118.90
2019-03-20T23:04:53.099Z,118.53
2019-03-20T23:07:21.552Z,121.60
2019-03-20T23:09:49.990Z,105.87
2019-03-20T23:12:20.347Z,110.95
2019-03-20T23:14:48.777Z,119.28
2019-03-20T23:17:17.360Z,109.80
2019-03-20T23:19:46.749Z,115.40
2019-03-20T23:22:19.353Z,127.30
2019-03-20T23:24:47.806Z,118.90
2019-03-20T23:27:22.785Z,119.42
2019-03-20T23:29:51.221Z,117.87
2019-03-20T23:32:20.045Z,120.42
2019-03-20T23:34:48.493Z,134.55
2019-03-20T23:37:16.968Z,119.35
2019-03-20T23:39:45.458Z,124.02
2019-03-20T23:42:13.908Z,113.20
2019-03-20T23:44:42.355Z,118.35
2019-03-20T23:47:10.793Z,116.08
2019-03-20T23:49:39.239Z,105.72
2019-03-20T23:52:07.681Z,111.45
2019-03-20T23:54:44.351Z,99.50
2019-03-20T23:57:12.793Z,118.17
2019-03-20T23:59:41.235Z,114.77
